createdAt,value
2023-01-18T00:00:35.178Z,96.61
2023-01-18T00:01:34.152Z,96.65
2023-01-18T00:02:34.158Z,96.75
2023-01-18T00:03:34.113Z,96.23
2023-01-18T00:04:34.143Z,96.29
2023-01-18T00:05:34.096Z,96.23
2023-01-18T00:06:34.123Z,96.19
2023-01-18T00:07:34.098Z,96.55
2023-01-18T00:08:34.081Z,96.55
2023-01-18T00:09:34.051Z,96.65
2023-01-18T00:10:34.052Z,96.65
2023-01-18T00:11:34.018Z,96.39
2023-01-18T00:12:34.077Z,96.55
2023-01-18T00:13:33.998Z,96.65
2023-01-18T00:14:33.986Z,96.81
2023-01-18T00:15:33.989Z,96.75
2023-01-18T00:16:34.008Z,96.96
2023-01-18T00:17:33.973Z,96.75
2023-01-18T00:18:33.975Z,97.34
2023-01-18T00:19:33.935Z,96.71
2023-01-18T00:20:33.930Z,97.23
2023-01-18T00:21:33.932Z,97.13
2023-01-18T00:22:33.936Z,96.71
2023-01-18T00:23:33.975Z,96.75
2023-01-18T00:24:33.884Z,96.61
2023-01-18T00:25:33.894Z,96.65
2023-01-18T00:26:33.881Z,96.19
2023-01-18T00:27:33.861Z,96.50
2023-01-18T00:28:33.827Z,96.44
2023-01-18T00:29:33.843Z,96.50
2023-01-18T00:30:33.810Z,96.29
2023-01-18T00:31:33.883Z,96.29
2023-01-18T00:32:33.819Z,95.87
2023-01-18T00:33:33.807Z,95.98
2023-01-18T00:34:33.780Z,96.29
2023-01-18T00:35:33.755Z,95.35
2023-01-18T00:36:33.743Z,95.35
2023-01-18T00:37:33.729Z,95.35
2023-01-18T00:38:33.760Z,95.25
2023-01-18T00:39:33.735Z,95.14
2023-01-18T00:40:33.696Z,95.35
2023-01-18T00:41:33.688Z,95.45
2023-01-18T00:42:33.690Z,95.56
2023-01-18T00:43:33.690Z,95.39
2023-01-18T00:44:33.690Z,95.56
2023-01-18T00:45:33.664Z,95.76
2023-01-18T00:46:33.634Z,96.29
2023-01-18T00:47:33.644Z,96.19
2023-01-18T00:48:33.623Z,95.66
2023-01-18T00:49:33.621Z,95.03
2023-01-18T00:50:33.604Z,94.93
2023-01-18T00:51:33.622Z,95.35
2023-01-18T00:52:33.563Z,95.66
2023-01-18T00:53:33.558Z,95.45
2023-01-18T00:54:33.541Z,95.60
2023-01-18T00:55:33.587Z,95.50
2023-01-18T00:56:33.553Z,95.50
2023-01-18T00:57:33.508Z,95.07
2023-01-18T00:58:33.497Z,95.39
2023-01-18T00:59:33.497Z,95.23
2023-01-18T01:00:33.527Z,96.27
2023-01-18T01:01:33.602Z,95.86
2023-01-18T01:02:33.506Z,95.92
2023-01-18T01:03:33.444Z,95.64
2023-01-18T01:04:33.433Z,96.17
2023-01-18T01:05:33.435Z,96.37
2023-01-18T01:06:33.436Z,96.27
2023-01-18T01:07:33.468Z,96.17
2023-01-18T01:08:33.387Z,96.37
2023-01-18T01:09:33.396Z,96.27
2023-01-18T01:10:33.369Z,96.48
2023-01-18T01:11:33.361Z,96.48
2023-01-18T01:12:33.353Z,96.37
2023-01-18T01:13:33.384Z,96.37
2023-01-18T01:14:33.321Z,96.27
2023-01-18T01:15:33.311Z,96.59
2023-01-18T01:16:33.335Z,96.11
2023-01-18T01:17:33.335Z,96.21
2023-01-18T01:18:33.290Z,96.42
2023-01-18T01:19:33.288Z,96.73
2023-01-18T01:20:33.324Z,96.63
2023-01-18T01:21:33.243Z,97.16
2023-01-18T01:22:33.270Z,96.73
2023-01-18T01:23:33.244Z,96.84
2023-01-18T01:24:33.235Z,97.26
2023-01-18T01:25:33.226Z,96.89
2023-01-18T01:26:33.232Z,97.72
2023-01-18T01:27:33.197Z,97.72
2023-01-18T01:28:33.177Z,97.83
2023-01-18T01:29:33.162Z,98.25
2023-01-18T01:30:33.204Z,98.35
2023-01-18T01:31:33.159Z,98.98
2023-01-18T01:32:33.153Z,98.88
2023-01-18T01:33:33.114Z,98.82
2023-01-18T01:34:33.119Z,98.92
2023-01-18T01:35:33.098Z,98.82
2023-01-18T01:36:33.106Z,98.77
2023-01-18T01:37:33.067Z,98.88
2023-01-18T01:38:33.107Z,98.77
2023-01-18T01:39:33.046Z,98.77
2023-01-18T01:40:33.068Z,98.08
2023-01-18T01:41:33.040Z,98.04
2023-01-18T01:42:33.034Z,97.93
2023-01-18T01:43:33.004Z,97.62
2023-01-18T01:44:32.990Z,97.93
2023-01-18T01:45:33.031Z,97.77
2023-01-18T01:46:32.975Z,97.98
2023-01-18T01:47:32.979Z,98.08
2023-01-18T01:48:32.970Z,97.98
2023-01-18T01:49:32.954Z,97.60
2023-01-18T01:50:32.920Z,98.02
2023-01-18T01:51:32.929Z,98.34
2023-01-18T01:52:33.064Z,98.08
2023-01-18T01:53:32.901Z,98.08
2023-01-18T01:54:32.894Z,98.08
2023-01-18T01:55:32.871Z,98.13
2023-01-18T01:56:41.671Z,98.13
2023-01-18T01:57:32.872Z,98.65
2023-01-18T01:58:32.881Z,98.65
2023-01-18T01:59:32.855Z,98.75
2023-01-18T02:00:32.814Z,98.65
2023-01-18T02:01:32.893Z,98.50
2023-01-18T02:02:32.874Z,98.39
2023-01-18T02:03:32.798Z,98.61
2023-01-18T02:04:32.782Z,98.39
2023-01-18T02:05:32.778Z,98.29
2023-01-18T02:06:32.758Z,98.29
2023-01-18T02:07:32.759Z,98.08
2023-01-18T02:08:32.738Z,97.98
2023-01-18T02:09:32.716Z,97.87
2023-01-18T02:10:32.741Z,97.56
2023-01-18T02:11:32.752Z,97.98
2023-01-18T02:12:32.712Z,97.98
2023-01-18T02:13:32.671Z,97.66
2023-01-18T02:14:32.681Z,98.08
2023-01-18T02:15:32.700Z,98.04
2023-01-18T02:16:32.666Z,97.66
2023-01-18T02:17:32.748Z,97.93
2023-01-18T02:18:32.622Z,97.52
2023-01-18T02:19:32.605Z,97.87
2023-01-18T02:20:32.624Z,97.66
2023-01-18T02:21:32.616Z,97.45
2023-01-18T02:22:32.592Z,97.24
2023-01-18T02:23:32.564Z,97.39
2023-01-18T02:24:32.560Z,97.92
2023-01-18T02:25:32.544Z,97.60
2023-01-18T02:26:32.561Z,98.13
2023-01-18T02:27:32.551Z,97.64
2023-01-18T02:28:32.526Z,98.38
2023-01-18T02:29:32.514Z,98.17
2023-01-18T02:30:32.534Z,98.49
2023-01-18T02:31:32.509Z,98.59
2023-01-18T02:32:32.472Z,98.49
2023-01-18T02:33:32.475Z,98.59
2023-01-18T02:34:32.440Z,98.23
2023-01-18T02:35:32.428Z,98.02
2023-01-18T02:36:32.480Z,97.60
2023-01-18T02:37:32.427Z,97.81
2023-01-18T02:38:32.396Z,97.92
2023-01-18T02:39:32.426Z,97.50
2023-01-18T02:40:32.414Z,97.18
2023-01-18T02:41:32.367Z,97.92
2023-01-18T02:42:32.383Z,97.18
2023-01-18T02:43:32.342Z,97.81
2023-01-18T02:44:32.361Z,97.81
2023-01-18T02:45:34.993Z,97.81
2023-01-18T02:46:32.351Z,97.86
2023-01-18T02:47:32.316Z,98.07
2023-01-18T02:48:32.330Z,98.34
2023-01-18T02:49:32.291Z,98.34
2023-01-18T02:50:32.277Z,97.71
2023-01-18T02:51:32.305Z,97.81
2023-01-18T02:52:32.280Z,97.81
2023-01-18T02:53:32.236Z,98.13
2023-01-18T02:54:32.258Z,98.07
2023-01-18T02:55:32.213Z,97.96
2023-01-18T02:56:32.215Z,97.96
2023-01-18T02:57:32.227Z,97.96
2023-01-18T02:58:32.224Z,98.07
2023-01-18T02:59:32.176Z,98.11
2023-01-18T03:00:32.192Z,98.17
2023-01-18T03:01:32.324Z,98.17
2023-01-18T03:02:32.197Z,98.43
2023-01-18T03:03:32.132Z,98.22
2023-01-18T03:04:32.112Z,98.53
2023-01-18T03:05:32.110Z,98.74
2023-01-18T03:06:32.124Z,98.85
2023-01-18T03:07:32.125Z,98.85
2023-01-18T03:08:32.081Z,98.95
2023-01-18T03:09:32.062Z,99.41
2023-01-18T03:10:32.070Z,98.85
2023-01-18T03:11:32.060Z,99.16
2023-01-18T03:12:32.066Z,99.52
2023-01-18T03:13:32.044Z,99.48
2023-01-18T03:14:32.052Z,99.16
2023-01-18T03:15:32.046Z,99.05
2023-01-18T03:16:31.987Z,99.21
2023-01-18T03:17:31.986Z,99.21
2023-01-18T03:18:31.963Z,99.41
2023-01-18T03:19:32.013Z,99.31
2023-01-18T03:20:31.962Z,99.10
2023-01-18T03:21:31.920Z,99.95
2023-01-18T03:22:31.909Z,99.99
2023-01-18T03:23:31.952Z,99.99
2023-01-18T03:24:31.917Z,99.10
2023-01-18T03:25:31.941Z,99.95
2023-01-18T03:26:31.902Z,99.73
2023-01-18T03:27:31.853Z,99.79
2023-01-18T03:28:31.846Z,99.41
2023-01-18T03:29:31.867Z,99.79
2023-01-18T03:30:31.877Z,99.95
2023-01-18T03:31:31.872Z,99.84
2023-01-18T03:32:31.796Z,99.99
2023-01-18T03:33:31.784Z,99.31
2023-01-18T03:34:31.779Z,99.99
2023-01-18T03:35:31.776Z,99.73
2023-01-18T03:36:31.794Z,99.69
2023-01-18T03:37:31.773Z,99.99
2023-01-18T03:38:31.733Z,99.99
2023-01-18T03:39:31.722Z,99.99
2023-01-18T03:40:31.731Z,99.99
2023-01-18T03:41:31.714Z,98.89
2023-01-18T03:42:31.720Z,99.79
2023-01-18T03:43:31.737Z,99.79
2023-01-18T03:44:31.667Z,99.69
2023-01-18T03:45:31.651Z,99.16
2023-01-18T03:46:31.718Z,99.05
2023-01-18T03:47:31.642Z,98.74
2023-01-18T03:48:31.646Z,98.53
2023-01-18T03:49:31.655Z,98.74
2023-01-18T03:50:31.603Z,98.53
2023-01-18T03:51:31.587Z,98.68
2023-01-18T03:52:31.577Z,99.41
2023-01-18T03:53:31.602Z,98.79
2023-01-18T03:54:31.586Z,99.31
2023-01-18T03:55:31.604Z,99.41
2023-01-18T03:56:31.562Z,99.21
2023-01-18T03:57:31.543Z,99.21
2023-01-18T03:58:31.516Z,98.64
2023-01-18T03:59:31.518Z,98.26
2023-01-18T04:00:31.609Z,98.16
2023-01-18T04:01:31.611Z,98.26
2023-01-18T04:02:31.514Z,98.26
2023-01-18T04:03:31.465Z,98.79
2023-01-18T04:04:31.461Z,98.68
2023-01-18T04:05:31.462Z,98.00
2023-01-18T04:06:31.447Z,98.26
2023-01-18T04:07:31.426Z,97.74
2023-01-18T04:08:31.406Z,97.11
2023-01-18T04:09:31.401Z,97.27
2023-01-18T04:10:31.389Z,96.89
2023-01-18T04:11:31.391Z,97.31
2023-01-18T04:12:31.404Z,97.21
2023-01-18T04:13:31.364Z,97.84
2023-01-18T04:14:31.337Z,98.16
2023-01-18T04:15:31.343Z,98.26
2023-01-18T04:16:31.331Z,98.26
2023-01-18T04:17:31.341Z,97.94
2023-01-18T04:18:31.354Z,97.94
2023-01-18T04:19:31.299Z,97.69
2023-01-18T04:20:31.328Z,97.27
2023-01-18T04:21:31.259Z,97.48
2023-01-18T04:22:31.288Z,96.85
2023-01-18T04:23:31.255Z,96.43
2023-01-18T04:24:31.232Z,96.95
2023-01-18T04:25:31.237Z,96.91
2023-01-18T04:26:31.215Z,97.02
2023-01-18T04:27:31.226Z,97.06
2023-01-18T04:28:31.205Z,96.85
2023-01-18T04:29:31.215Z,96.85
2023-01-18T04:30:31.217Z,96.64
2023-01-18T04:31:31.301Z,96.85
2023-01-18T04:32:31.197Z,96.39
2023-01-18T04:33:31.142Z,96.22
2023-01-18T04:34:31.196Z,96.43
2023-01-18T04:35:31.103Z,96.85
2023-01-18T04:36:31.095Z,96.95
2023-01-18T04:37:31.143Z,96.75
2023-01-18T04:38:31.105Z,96.85
2023-01-18T04:39:31.078Z,96.64
2023-01-18T04:40:31.081Z,96.85
2023-01-18T04:41:31.038Z,96.85
2023-01-18T04:42:31.028Z,96.85
2023-01-18T04:43:31.020Z,96.22
2023-01-18T04:44:31.011Z,96.75
2023-01-18T04:45:31.060Z,96.64
2023-01-18T04:46:31.032Z,96.22
2023-01-18T04:47:30.995Z,96.49
2023-01-18T04:48:30.986Z,95.86
2023-01-18T04:49:30.994Z,95.23
2023-01-18T04:50:30.962Z,95.59
2023-01-18T04:51:30.974Z,95.38
2023-01-18T04:52:30.931Z,95.97
2023-01-18T04:53:30.910Z,96.64
2023-01-18T04:54:30.919Z,96.53
2023-01-18T04:55:30.899Z,96.53
2023-01-18T04:56:30.881Z,96.33
2023-01-18T04:57:30.902Z,96.28
2023-01-18T04:58:30.852Z,96.53
2023-01-18T04:59:30.867Z,95.80
2023-01-18T05:00:30.879Z,95.54
2023-01-18T05:01:31.003Z,95.80
2023-01-18T05:02:30.924Z,95.90
2023-01-18T05:03:30.871Z,96.01
2023-01-18T05:04:30.830Z,95.54
2023-01-18T05:05:30.775Z,95.97
2023-01-18T05:06:30.799Z,95.76
2023-01-18T05:07:30.752Z,95.59
2023-01-18T05:08:30.756Z,96.01
2023-01-18T05:09:30.762Z,95.80
2023-01-18T05:10:30.766Z,96.69
2023-01-18T05:11:30.731Z,96.01
2023-01-18T05:12:30.740Z,96.37
2023-01-18T05:13:30.688Z,96.26
2023-01-18T05:14:30.703Z,96.16
2023-01-18T05:15:30.707Z,96.22
2023-01-18T05:16:30.782Z,95.70
2023-01-18T05:17:30.640Z,95.53
2023-01-18T05:18:30.644Z,95.70
2023-01-18T05:19:30.664Z,95.70
2023-01-18T05:20:30.626Z,96.53
2023-01-18T05:21:30.673Z,96.33
2023-01-18T05:22:30.607Z,96.33
2023-01-18T05:23:30.577Z,96.33
2023-01-18T05:24:30.591Z,96.64
2023-01-18T05:25:30.598Z,95.80
2023-01-18T05:26:30.576Z,96.53
2023-01-18T05:27:30.577Z,96.43
2023-01-18T05:28:30.528Z,96.64
2023-01-18T05:29:30.516Z,96.43
2023-01-18T05:30:30.537Z,96.75
2023-01-18T05:31:30.621Z,96.53
2023-01-18T05:32:30.496Z,96.64
2023-01-18T05:33:30.514Z,96.64
2023-01-18T05:34:30.480Z,96.07
2023-01-18T05:35:30.494Z,96.70
2023-01-18T05:36:30.443Z,96.53
2023-01-18T05:37:30.451Z,96.64
2023-01-18T05:38:30.457Z,96.64
2023-01-18T05:39:30.471Z,96.70
2023-01-18T05:40:30.392Z,96.53
2023-01-18T05:41:30.430Z,96.75
2023-01-18T05:42:30.373Z,96.43
2023-01-18T05:43:30.373Z,96.49
2023-01-18T05:44:30.394Z,96.33
2023-01-18T05:45:30.356Z,96.22
2023-01-18T05:46:30.413Z,96.85
2023-01-18T05:47:30.346Z,96.95
2023-01-18T05:48:30.315Z,96.53
2023-01-18T05:49:30.313Z,96.64
2023-01-18T05:50:30.287Z,97.02
2023-01-18T05:51:30.272Z,96.85
2023-01-18T05:52:30.343Z,96.53
2023-01-18T05:53:30.269Z,97.06
2023-01-18T05:54:30.286Z,97.27
2023-01-18T05:55:30.260Z,97.69
2023-01-18T05:56:30.259Z,98.00
2023-01-18T05:57:30.221Z,98.11
2023-01-18T05:58:30.199Z,98.11
2023-01-18T05:59:30.210Z,98.11
2023-01-18T06:00:30.193Z,98.32
2023-01-18T06:01:30.269Z,98.74
2023-01-18T06:02:30.150Z,98.38
2023-01-18T06:03:30.152Z,99.16
2023-01-18T06:04:30.225Z,99.11
2023-01-18T06:05:30.150Z,98.91
2023-01-18T06:06:30.125Z,99.43
2023-01-18T06:07:30.161Z,99.22
2023-01-18T06:08:30.095Z,99.64
2023-01-18T06:09:30.098Z,99.74
2023-01-18T06:10:30.103Z,99.99
2023-01-18T06:11:30.119Z,99.64
2023-01-18T06:12:30.070Z,99.11
2023-01-18T06:13:30.092Z,99.33
2023-01-18T06:14:30.029Z,99.22
2023-01-18T06:15:30.007Z,99.11
2023-01-18T06:16:30.163Z,99.96
2023-01-18T06:17:29.993Z,99.22
2023-01-18T06:18:30.007Z,99.11
2023-01-18T06:19:30.039Z,98.80
2023-01-18T06:20:29.953Z,99.07
2023-01-18T06:21:29.943Z,99.43
2023-01-18T06:22:30.699Z,98.65
2023-01-18T06:23:29.942Z,98.44
2023-01-18T06:24:29.936Z,98.69
2023-01-18T06:25:29.965Z,98.44
2023-01-18T06:26:30.000Z,98.28
2023-01-18T06:27:29.877Z,98.55
2023-01-18T06:28:30.889Z,98.59
2023-01-18T06:29:29.882Z,98.59
2023-01-18T06:30:29.898Z,98.28
2023-01-18T06:31:29.961Z,98.69
2023-01-18T06:32:29.822Z,98.69
2023-01-18T06:33:29.822Z,98.91
2023-01-18T06:34:30.480Z,99.33
2023-01-18T06:35:29.808Z,99.99
2023-01-18T06:36:29.845Z,99.99
2023-01-18T06:37:29.786Z,99.74
2023-01-18T06:38:29.799Z,99.99
2023-01-18T06:39:29.766Z,99.74
2023-01-18T06:40:29.771Z,99.96
2023-01-18T06:41:29.788Z,99.70
2023-01-18T06:42:29.730Z,99.64
2023-01-18T06:43:29.700Z,99.99
2023-01-18T06:44:29.690Z,99.99
2023-01-18T06:45:29.812Z,99.74
2023-01-18T06:46:29.789Z,99.54
2023-01-18T06:47:29.671Z,99.74
2023-01-18T06:48:29.647Z,99.18
2023-01-18T06:49:30.055Z,99.49
2023-01-18T06:50:29.627Z,99.60
2023-01-18T06:51:29.648Z,99.60
2023-01-18T06:52:29.647Z,99.70
2023-01-18T06:53:29.590Z,99.49
2023-01-18T06:54:29.622Z,99.18
2023-01-18T06:55:29.608Z,99.91
2023-01-18T06:56:29.568Z,99.07
2023-01-18T06:57:29.615Z,99.38
2023-01-18T06:58:29.579Z,99.38
2023-01-18T06:59:29.525Z,99.07
2023-01-18T07:00:29.555Z,98.86
2023-01-18T07:01:29.629Z,99.38
2023-01-18T07:02:29.503Z,99.28
2023-01-18T07:03:29.503Z,99.07
2023-01-18T07:04:29.510Z,99.18
2023-01-18T07:05:29.501Z,98.82
2023-01-18T07:06:29.449Z,99.07
2023-01-18T07:07:29.435Z,98.97
2023-01-18T07:08:29.469Z,99.28
2023-01-18T07:09:29.425Z,99.03
2023-01-18T07:10:29.424Z,99.24
2023-01-18T07:11:29.437Z,98.75
2023-01-18T07:12:29.387Z,98.92
2023-01-18T07:13:29.413Z,98.61
2023-01-18T07:14:29.474Z,98.97
2023-01-18T07:15:29.363Z,99.07
2023-01-18T07:16:29.456Z,98.86
2023-01-18T07:17:29.326Z,98.82
2023-01-18T07:18:29.374Z,99.28
2023-01-18T07:19:29.330Z,98.82
2023-01-18T07:20:29.333Z,98.19
2023-01-18T07:21:29.333Z,98.50
2023-01-18T07:22:29.267Z,98.92
2023-01-18T07:23:29.258Z,98.19
2023-01-18T07:24:29.285Z,99.24
2023-01-18T07:25:29.260Z,99.24
2023-01-18T07:26:29.260Z,99.24
2023-01-18T07:27:29.253Z,99.03
2023-01-18T07:28:29.202Z,98.82
2023-01-18T07:29:29.212Z,98.82
2023-01-18T07:30:29.197Z,98.82
2023-01-18T07:31:29.272Z,98.67
2023-01-18T07:32:29.193Z,98.98
2023-01-18T07:33:29.157Z,98.77
2023-01-18T07:34:29.132Z,98.46
2023-01-18T07:35:29.125Z,98.88
2023-01-18T07:36:29.120Z,98.25
2023-01-18T07:37:29.160Z,98.25
2023-01-18T07:38:29.122Z,98.25
2023-01-18T07:39:29.230Z,98.25
2023-01-18T07:40:29.070Z,98.04
2023-01-18T07:41:30.945Z,98.35
2023-01-18T07:42:29.066Z,98.25
2023-01-18T07:43:29.044Z,98.21
2023-01-18T07:44:29.068Z,98.10
2023-01-18T07:45:29.019Z,97.78
2023-01-18T07:46:29.114Z,98.05
2023-01-18T07:47:29.031Z,97.89
2023-01-18T07:48:29.000Z,97.63
2023-01-18T07:49:28.988Z,97.53
2023-01-18T07:50:29.010Z,97.47
2023-01-18T07:51:28.952Z,97.63
2023-01-18T07:52:28.956Z,97.85
2023-01-18T07:53:28.928Z,97.53
2023-01-18T07:54:28.944Z,97.85
2023-01-18T07:55:28.923Z,97.95
2023-01-18T07:56:28.947Z,97.42
2023-01-18T07:57:28.881Z,97.49
2023-01-18T07:58:28.868Z,97.59
2023-01-18T07:59:28.903Z,97.49
2023-01-18T08:00:28.853Z,97.38
2023-01-18T08:01:28.950Z,96.86
2023-01-18T08:02:28.922Z,97.06
2023-01-18T08:03:28.818Z,96.71
2023-01-18T08:04:28.829Z,96.81
2023-01-18T08:05:28.822Z,96.61
2023-01-18T08:06:28.807Z,96.86
2023-01-18T08:07:28.787Z,96.50
2023-01-18T08:08:28.820Z,96.39
2023-01-18T08:09:28.869Z,97.50
2023-01-18T08:10:28.735Z,97.44
2023-01-18T08:11:28.772Z,97.44
2023-01-18T08:12:28.731Z,97.61
2023-01-18T08:13:28.719Z,97.55
2023-01-18T08:14:28.770Z,96.88
2023-01-18T08:15:28.849Z,97.81
2023-01-18T08:16:28.674Z,97.50
2023-01-18T08:17:28.663Z,96.77
2023-01-18T08:18:28.703Z,97.29
2023-01-18T08:19:28.706Z,96.56
2023-01-18T08:20:28.627Z,96.62
2023-01-18T08:21:28.616Z,96.94
2023-01-18T08:22:28.621Z,96.31
2023-01-18T08:23:28.595Z,96.51
2023-01-18T08:24:28.641Z,96.62
2023-01-18T08:25:28.621Z,96.10
2023-01-18T08:26:28.583Z,96.47
2023-01-18T08:27:28.546Z,96.47
2023-01-18T08:28:28.556Z,96.05
2023-01-18T08:29:28.537Z,95.84
2023-01-18T08:30:28.546Z,95.84
2023-01-18T08:31:28.590Z,96.05
2023-01-18T08:32:28.489Z,95.90
2023-01-18T08:33:28.520Z,95.59
2023-01-18T08:34:28.484Z,96.01
2023-01-18T08:35:28.482Z,96.11
2023-01-18T08:36:28.451Z,95.59
2023-01-18T08:37:28.479Z,96.01
2023-01-18T08:38:28.423Z,94.96
2023-01-18T08:39:28.438Z,95.49
2023-01-18T08:40:28.404Z,95.34
2023-01-18T08:41:28.660Z,95.23
2023-01-18T08:42:28.376Z,95.23
2023-01-18T08:43:28.415Z,94.71
2023-01-18T08:44:28.385Z,94.19
2023-01-18T08:45:28.370Z,94.29
2023-01-18T08:46:28.392Z,93.98
2023-01-18T08:47:28.342Z,93.25
2023-01-18T08:48:28.309Z,93.25
2023-01-18T08:49:28.318Z,93.10
2023-01-18T08:50:28.328Z,93.41
2023-01-18T08:51:28.277Z,92.27
2023-01-18T08:52:28.328Z,92.75
2023-01-18T08:53:28.279Z,92.75
2023-01-18T08:54:28.242Z,91.81
2023-01-18T08:55:28.253Z,92.44
2023-01-18T08:56:28.232Z,92.75
2023-01-18T08:57:28.247Z,91.39
2023-01-18T08:58:28.227Z,91.56
2023-01-18T08:59:28.256Z,91.66
2023-01-18T09:00:28.199Z,92.60
2023-01-18T09:01:28.308Z,92.33
2023-01-18T09:02:28.225Z,93.33
2023-01-18T09:03:28.152Z,93.02
2023-01-18T09:04:28.145Z,93.16
2023-01-18T09:05:28.160Z,92.44
2023-01-18T09:06:28.145Z,92.50
2023-01-18T09:07:28.099Z,92.50
2023-01-18T09:08:28.139Z,91.77
2023-01-18T09:09:28.121Z,91.56
2023-01-18T09:10:28.085Z,91.87
2023-01-18T09:11:28.101Z,92.60
2023-01-18T09:12:28.039Z,92.60
2023-01-18T09:13:28.039Z,92.50
2023-01-18T09:14:28.021Z,92.60
2023-01-18T09:15:28.051Z,92.40
2023-01-18T09:16:28.108Z,92.50
2023-01-18T09:17:27.990Z,92.66
2023-01-18T09:18:27.992Z,92.60
2023-01-18T09:19:27.986Z,92.56
2023-01-18T09:20:27.958Z,92.71
2023-01-18T09:21:28.030Z,91.77
2023-01-18T09:22:27.966Z,91.72
2023-01-18T09:23:27.922Z,91.83
2023-01-18T09:24:27.939Z,91.62
2023-01-18T09:25:27.899Z,91.31
2023-01-18T09:26:27.952Z,92.00
2023-01-18T09:27:27.894Z,91.58
2023-01-18T09:28:27.924Z,91.37
2023-01-18T09:29:27.857Z,90.95
2023-01-18T09:30:27.849Z,91.06
2023-01-18T09:31:27.901Z,91.16
2023-01-18T09:32:27.827Z,91.78
2023-01-18T09:33:36.859Z,90.64
2023-01-18T09:34:28.826Z,91.27
2023-01-18T09:35:27.800Z,90.54
2023-01-18T09:36:27.808Z,90.54
2023-01-18T09:37:27.766Z,90.22
2023-01-18T09:38:27.767Z,89.39
2023-01-18T09:39:27.776Z,89.39
2023-01-18T09:40:27.728Z,89.81
2023-01-18T09:41:27.717Z,90.22
2023-01-18T09:42:27.761Z,90.01
2023-01-18T09:43:27.712Z,90.33
2023-01-18T09:44:27.701Z,90.33
2023-01-18T09:45:27.707Z,89.45
2023-01-18T09:46:27.693Z,90.22
2023-01-18T09:47:27.659Z,89.70
2023-01-18T09:48:27.716Z,90.01
2023-01-18T09:49:27.671Z,89.56
2023-01-18T09:50:27.617Z,88.83
2023-01-18T09:51:27.605Z,89.66
2023-01-18T09:52:27.615Z,88.73
2023-01-18T09:53:27.604Z,89.87
2023-01-18T09:54:27.608Z,89.87
2023-01-18T09:55:27.597Z,88.79
2023-01-18T09:56:27.552Z,88.58
2023-01-18T09:57:27.547Z,88.58
2023-01-18T09:58:27.558Z,88.20
2023-01-18T09:59:27.539Z,87.85
2023-01-18T10:00:27.703Z,87.75
2023-01-18T10:01:27.619Z,88.17
2023-01-18T10:02:27.549Z,88.06
2023-01-18T10:03:27.498Z,87.96
2023-01-18T10:04:27.540Z,88.06
2023-01-18T10:05:27.450Z,87.99
2023-01-18T10:06:27.452Z,87.75
2023-01-18T10:07:27.468Z,87.75
2023-01-18T10:08:27.467Z,87.96
2023-01-18T10:09:27.411Z,87.96
2023-01-18T10:10:27.460Z,87.79
2023-01-18T10:11:27.405Z,87.43
2023-01-18T10:12:27.382Z,87.54
2023-01-18T10:13:27.365Z,87.12
2023-01-18T10:14:27.356Z,87.85
2023-01-18T10:15:27.337Z,87.85
2023-01-18T10:16:27.398Z,87.43
2023-01-18T10:17:27.321Z,87.65
2023-01-18T10:18:27.318Z,88.17
2023-01-18T10:19:27.331Z,88.17
2023-01-18T10:20:27.303Z,88.17
2023-01-18T10:21:27.273Z,87.23
2023-01-18T10:22:27.283Z,87.54
2023-01-18T10:23:28.247Z,87.54
2023-01-18T10:24:27.253Z,87.50
2023-01-18T10:25:27.270Z,87.54
2023-01-18T10:26:27.239Z,86.29
2023-01-18T10:27:27.219Z,86.19
2023-01-18T10:28:27.199Z,86.71
2023-01-18T10:29:27.738Z,87.02
2023-01-18T10:30:27.206Z,86.81
2023-01-18T10:31:27.232Z,87.65
2023-01-18T10:32:27.160Z,86.50
2023-01-18T10:33:27.147Z,87.65
2023-01-18T10:34:27.131Z,86.60
2023-01-18T10:35:27.145Z,86.29
2023-01-18T10:36:27.104Z,86.60
2023-01-18T10:37:27.102Z,86.15
2023-01-18T10:38:27.103Z,86.57
2023-01-18T10:39:27.089Z,87.08
2023-01-18T10:40:27.093Z,86.98
2023-01-18T10:41:27.067Z,86.35
2023-01-18T10:42:27.061Z,86.25
2023-01-18T10:43:27.028Z,86.71
2023-01-18T10:44:27.030Z,87.50
2023-01-18T10:45:27.094Z,87.65
2023-01-18T10:46:27.008Z,87.29
2023-01-18T10:47:27.011Z,87.40
2023-01-18T10:48:26.971Z,87.29
2023-01-18T10:49:26.961Z,87.60
2023-01-18T10:50:26.967Z,87.54
2023-01-18T10:51:26.982Z,87.75
2023-01-18T10:52:26.939Z,88.06
2023-01-18T10:53:26.925Z,87.12
2023-01-18T10:54:26.917Z,87.37
2023-01-18T10:55:26.894Z,87.37
2023-01-18T10:56:26.906Z,88.27
2023-01-18T10:57:26.908Z,88.06
2023-01-18T10:58:26.966Z,88.20
2023-01-18T10:59:26.896Z,88.10
2023-01-18T11:00:26.861Z,88.20
2023-01-18T11:01:26.963Z,88.10
2023-01-18T11:02:26.870Z,88.10
2023-01-18T11:03:26.817Z,87.73
2023-01-18T11:04:26.820Z,88.56
2023-01-18T11:05:26.790Z,88.73
2023-01-18T11:06:26.795Z,88.35
2023-01-18T11:07:26.786Z,87.73
2023-01-18T11:08:26.772Z,87.52
2023-01-18T11:09:26.759Z,87.62
2023-01-18T11:10:26.732Z,86.89
2023-01-18T11:11:26.767Z,86.37
2023-01-18T11:12:26.706Z,86.79
2023-01-18T11:13:26.706Z,86.33
2023-01-18T11:14:26.757Z,85.12
2023-01-18T11:15:26.686Z,84.08
2023-01-18T11:16:26.675Z,85.39
2023-01-18T11:17:26.675Z,85.60
2023-01-18T11:18:26.668Z,83.94
2023-01-18T11:19:26.652Z,84.45
2023-01-18T11:20:26.651Z,83.48
2023-01-18T11:21:26.624Z,83.27
2023-01-18T11:22:26.591Z,83.58
2023-01-18T11:23:26.602Z,83.27
2023-01-18T11:24:26.572Z,83.03
2023-01-18T11:25:26.559Z,82.78
2023-01-18T11:26:26.594Z,82.09
2023-01-18T11:27:26.536Z,81.46
2023-01-18T11:28:26.568Z,82.15
2023-01-18T11:29:28.496Z,81.53
2023-01-18T11:30:26.543Z,80.08
2023-01-18T11:31:26.560Z,80.22
2023-01-18T11:32:26.531Z,80.80
2023-01-18T11:33:26.469Z,79.66
2023-01-18T11:34:26.459Z,79.07
2023-01-18T11:35:26.486Z,79.49
2023-01-18T11:36:26.485Z,80.94
2023-01-18T11:37:26.469Z,81.26
2023-01-18T11:38:26.471Z,80.94
2023-01-18T11:39:26.406Z,80.70
2023-01-18T11:40:26.431Z,80.63
2023-01-18T11:41:26.419Z,80.53
2023-01-18T11:42:26.377Z,79.80
2023-01-18T11:43:26.404Z,79.80
2023-01-18T11:44:26.379Z,80.63
2023-01-18T11:45:26.343Z,80.74
2023-01-18T11:46:26.379Z,80.43
2023-01-18T11:47:26.320Z,80.53
2023-01-18T11:48:26.304Z,80.74
2023-01-18T11:49:26.307Z,81.46
2023-01-18T11:50:26.403Z,81.26
2023-01-18T11:51:26.286Z,81.36
2023-01-18T11:52:26.286Z,80.74
2023-01-18T11:53:26.278Z,81.36
2023-01-18T11:54:26.239Z,82.23
2023-01-18T11:55:26.270Z,82.23
2023-01-18T11:56:26.213Z,81.71
2023-01-18T11:57:36.793Z,82.54
2023-01-18T11:58:26.221Z,82.54
2023-01-18T11:59:26.211Z,82.27
2023-01-18T12:00:26.179Z,82.58
2023-01-18T12:01:26.183Z,82.79
2023-01-18T12:02:26.199Z,83.62
2023-01-18T12:03:26.173Z,82.68
2023-01-18T12:04:26.170Z,83.31
2023-01-18T12:05:26.114Z,83.66
2023-01-18T12:06:26.132Z,82.93
2023-01-18T12:07:26.170Z,82.51
2023-01-18T12:08:26.078Z,83.14
2023-01-18T12:09:26.066Z,82.72
2023-01-18T12:10:26.084Z,82.62
2023-01-18T12:11:26.055Z,83.14
2023-01-18T12:12:26.078Z,83.31
2023-01-18T12:13:26.020Z,82.58
2023-01-18T12:14:26.011Z,82.79
2023-01-18T12:15:26.043Z,82.89
2023-01-18T12:16:26.030Z,82.79
2023-01-18T12:17:25.988Z,81.96
2023-01-18T12:18:26.023Z,82.06
2023-01-18T12:19:25.954Z,82.58
2023-01-18T12:20:25.947Z,83.10
2023-01-18T12:21:25.963Z,82.93
2023-01-18T12:22:25.920Z,83.04
2023-01-18T12:23:25.914Z,83.14
2023-01-18T12:24:25.962Z,83.04
2023-01-18T12:25:25.885Z,83.56
2023-01-18T12:26:25.877Z,83.59
2023-01-18T12:27:25.872Z,84.12
2023-01-18T12:28:25.857Z,84.12
2023-01-18T12:29:25.865Z,84.22
2023-01-18T12:30:25.881Z,84.57
2023-01-18T12:31:25.818Z,85.89
2023-01-18T12:32:25.810Z,85.78
2023-01-18T12:33:42.501Z,85.93
2023-01-18T12:34:26.891Z,86.45
2023-01-18T12:35:25.788Z,87.70
2023-01-18T12:36:25.763Z,87.22
2023-01-18T12:37:25.772Z,87.60
2023-01-18T12:38:25.744Z,88.06
2023-01-18T12:39:25.763Z,88.09
2023-01-18T12:40:25.764Z,88.72
2023-01-18T12:41:25.707Z,88.93
2023-01-18T12:42:25.702Z,89.07
2023-01-18T12:43:25.768Z,88.87
2023-01-18T12:44:25.730Z,88.87
2023-01-18T12:45:25.666Z,89.18
2023-01-18T12:46:25.698Z,88.90
2023-01-18T12:47:25.645Z,88.90
2023-01-18T12:48:25.629Z,88.97
2023-01-18T12:49:25.697Z,88.90
2023-01-18T12:50:25.652Z,88.80
2023-01-18T12:51:25.635Z,89.64
2023-01-18T12:52:25.611Z,88.87